Time,TemperatureF,DewpointF,PressureIn,WindDirection,WindDirectionDegrees,WindSpeedMPH,WindSpeedGustMPH,Humidity,HourlyPrecipIn,Conditions,Clouds,dailyrainin,SoftwareType,DateUTC
2013-11-14 00:23:00,24.0,20.0,30.29,SW,234,6.0,15.0,83,0.00,,,0.01,,2013-11-14 05:23:00,
2013-11-14 00:53:00,24.0,20.0,30.28,SW,229,9.0,14.0,83,0.00,,,0.01,,2013-11-14 05:53:00,
2013-11-14 01:22:00,24.0,19.0,30.27,SW,234,11.0,23.0,81,0.00,,,0.01,,2013-11-14 06:22:00,
2013-11-14 01:52:00,25.0,19.0,30.26,WSW,237,7.0,18.0,79,0.00,,,0.01,,2013-11-14 06:52:00,
2013-11-14 02:11:00,25.0,19.0,30.26,SW,224,9.0,18.0,79,0.00,,,0.01,,2013-11-14 07:11:00,
2013-11-14 02:22:00,25.0,19.0,30.26,SW,224,9.0,18.0,79,0.00,,,0.01,,2013-11-14 07:22:00,
2013-11-14 02:42:00,25.0,19.0,30.26,SW,231,9.0,15.0,77,0.00,,,0.01,,2013-11-14 07:42:00,
2013-11-14 02:53:00,25.0,19.0,30.25,SW,230,10.0,24.0,77,0.00,,,0.01,,2013-11-14 07:53:00,
2013-11-14 03:22:00,25.0,18.0,30.24,SW,232,10.0,24.0,75,0.00,,,0.01,,2013-11-14 08:22:00,
2013-11-14 03:53:00,26.0,19.0,30.24,WSW,241,13.0,21.0,73,0.00,,,0.01,,2013-11-14 08:53:00,
2013-11-14 04:22:00,26.0,19.0,30.24,WSW,238,10.0,18.0,73,0.00,,,0.01,,2013-11-14 09:22:00,
2013-11-14 04:53:00,26.0,18.0,30.23,WSW,243,11.0,25.0,71,0.00,,,0.01,,2013-11-14 09:53:00,
2013-11-14 05:12:00,26.0,18.0,30.23,WSW,240,12.0,19.0,71,0.00,,,0.01,,2013-11-14 10:12:00,
2013-11-14 05:23:00,26.0,18.0,30.23,WSW,240,12.0,19.0,71,0.00,,,0.01,,2013-11-14 10:23:00,
2013-11-14 05:52:00,26.0,18.0,30.23,WSW,242,13.0,23.0,71,0.00,,,0.01,,2013-11-14 10:52:00,
2013-11-14 06:22:00,27.0,18.0,30.24,WSW,245,10.0,19.0,69,0.00,,,0.01,,2013-11-14 11:22:00,
2013-11-14 06:52:00,27.0,18.0,30.25,SW,225,10.0,24.0,69,0.00,,,0.01,,2013-11-14 11:52:00,
2013-11-14 07:21:00,27.0,18.0,30.26,SW,233,11.0,22.0,68,0.00,,,0.01,,2013-11-14 12:21:00,
2013-11-14 07:52:00,28.0,19.0,30.27,SW,231,11.0,24.0,68,0.00,,,0.01,,2013-11-14 12:52:00,
2013-11-14 08:22:00,28.0,18.0,30.27,SW,231,10.0,18.0,67,0.00,,,0.01,,2013-11-14 13:22:00,
2013-11-14 08:42:00,28.0,18.0,30.27,SW,231,9.0,18.0,66,0.00,,,0.01,,2013-11-14 13:42:00,
2013-11-14 08:52:00,29.0,18.0,30.28,SW,232,10.0,19.0,64,0.00,,,0.01,,2013-11-14 13:52:00,
2013-11-14 09:22:00,30.0,18.0,30.27,SW,233,8.0,16.0,61,0.00,,,0.01,,2013-11-14 14:22:00,
2013-11-14 09:42:00,30.0,17.0,30.27,SW,230,6.0,14.0,59,0.00,,,0.01,,2013-11-14 14:42:00,
2013-11-14 09:52:00,30.0,17.0,30.27,SW,230,6.0,14.0,59,0.00,,,0.01,,2013-11-14 14:52:00,
2013-11-14 10:22:00,34.0,18.0,30.26,WSW,241,14.0,20.0,51,0.00,,,0.01,,2013-11-14 15:22:00,
2013-11-14 10:43:00,34.0,17.0,30.26,WSW,240,11.0,20.0,50,0.00,,,0.01,,2013-11-14 15:43:00,
2013-11-14 10:53:00,36.0,18.0,30.26,SW,227,8.0,15.0,48,0.00,,,0.01,,2013-11-14 15:53:00,
2013-11-14 11:23:00,38.0,18.0,30.25,SW,232,5.0,15.0,43,0.00,,,0.01,,2013-11-14 16:23:00,
2013-11-14 11:42:00,39.0,16.0,30.24,WSW,238,14.0,20.0,38,0.00,,,0.01,,2013-11-14 16:42:00,
2013-11-14 11:52:00,39.0,16.0,30.24,WSW,238,14.0,20.0,38,0.00,,,0.01,,2013-11-14 16:52:00,
2013-11-14 12:23:00,40.0,15.0,30.22,WSW,237,10.0,21.0,35,0.00,,,0.01,,2013-11-14 17:23:00,
2013-11-14 12:52:00,42.0,13.0,30.20,WSW,239,9.0,25.0,30,0.00,,,0.01,,2013-11-14 17:52:00,
2013-11-14 13:22:00,42.0,12.0,30.19,WSW,245,11.0,22.0,29,0.00,,,0.01,,2013-11-14 18:22:00,
2013-11-14 13:52:00,43.0,12.0,30.21,WSW,240,10.0,21.0,28,0.00,,,0.01,,2013-11-14 18:52:00,
2013-11-14 14:21:00,43.0,13.0,30.20,WSW,240,10.0,16.0,29,0.00,,,0.00,,2013-11-14 19:21:00,
2013-11-14 14:52:00,44.0,14.0,30.19,WSW,243,9.0,17.0,29,0.00,,,0.00,,2013-11-14 19:52:00,
2013-11-14 15:22:00,45.0,13.0,30.19,WSW,245,9.0,22.0,27,0.00,,,0.00,,2013-11-14 20:22:00,
2013-11-14 15:42:00,45.0,14.0,30.19,SW,229,7.0,19.0,28,0.00,,,0.00,,2013-11-14 20:42:00,
2013-11-14 15:52:00,45.0,14.0,30.19,SW,229,7.0,19.0,28,0.00,,,0.00,,2013-11-14 20:52:00,
2013-11-14 16:02:00,45.0,14.0,30.19,SW,229,7.0,19.0,28,0.00,,,0.00,,2013-11-14 21:02:00,
2013-11-14 16:22:00,46.0,17.0,30.19,WSW,246,8.0,13.0,31,0.00,,,0.00,,2013-11-14 21:22:00,
2013-11-14 16:53:00,45.0,17.0,30.18,WSW,238,4.0,11.0,32,0.00,,,0.00,,2013-11-14 21:53:00,
2013-11-14 17:13:00,44.0,16.0,30.19,WSW,244,6.0,14.0,32,0.00,,,0.00,,2013-11-14 22:13:00,
2013-11-14 17:23:00,44.0,16.0,30.19,WSW,244,6.0,14.0,32,0.00,,,0.00,,2013-11-14 22:23:00,
2013-11-14 17:52:00,41.0,15.0,30.19,SW,219,4.0,9.0,35,0.00,,,0.00,,2013-11-14 22:52:00,
2013-11-14 17:53:00,42.0,16.0,30.19,WSW,237,3.0,8.0,35,0.00,,,0.00,,2013-11-14 22:53:00,
2013-11-14 18:02:00,42.0,16.0,30.19,WSW,237,3.0,8.0,35,0.00,,,0.00,,2013-11-14 23:02:00,
2013-11-14 18:22:00,41.0,15.0,30.19,SW,219,4.0,9.0,35,0.00,,,0.00,,2013-11-14 23:22:00,
2013-11-14 18:33:00,41.0,15.0,30.19,SW,219,4.0,9.0,35,0.00,,,0.00,,2013-11-14 23:33:00,
2013-11-14 18:43:00,41.0,15.0,30.19,SW,219,4.0,9.0,35,0.00,,,0.00,,2013-11-14 23:43:00,
2013-11-14 19:22:00,40.0,17.0,30.18,SW,218,2.0,9.0,39,0.00,,,0.00,,2013-11-15 00:22:00,
2013-11-14 19:32:00,40.0,17.0,30.18,SW,218,2.0,9.0,39,0.00,,,0.00,,2013-11-15 00:32:00,
2013-11-14 19:52:00,37.0,18.0,30.17,North,0,0.0,5.0,45,0.00,,,0.00,,2013-11-15 00:52:00,
2013-11-14 20:22:00,35.0,17.0,30.17,North,0,0.0,2.0,48,0.00,,,0.00,,2013-11-15 01:22:00,
2013-11-14 20:42:00,35.0,17.0,30.16,North,0,0.0,0.0,48,0.00,,,0.00,,2013-11-15 01:42:00,
2013-11-14 20:52:00,35.0,18.0,30.16,North,0,0.0,0.0,49,0.00,,,0.00,,2013-11-15 01:52:00,
2013-11-14 21:22:00,35.0,17.0,30.16,North,0,0.0,0.0,47,0.00,,,0.00,,2013-11-15 02:22:00,
2013-11-14 21:42:00,35.0,16.0,30.16,North,0,0.0,2.0,46,0.00,,,0.00,,2013-11-15 02:42:00,
2013-11-14 21:52:00,35.0,16.0,30.16,North,0,0.0,2.0,46,0.00,,,0.00,,2013-11-15 02:52:00,
2013-11-14 22:22:00,35.0,16.0,30.16,North,0,0.0,2.0,45,0.00,,,0.00,,2013-11-15 03:22:00,
2013-11-14 22:44:00,36.0,16.0,30.16,North,0,0.0,1.0,44,0.00,,,0.00,,2013-11-15 03:44:00,
2013-11-14 22:54:00,36.0,15.0,30.16,North,0,0.0,2.0,42,0.00,,,0.00,,2013-11-15 03:54:00,
2013-11-14 23:24:00,37.0,15.0,30.19,North,0,0.0,3.0,40,0.00,,,0.00,,2013-11-15 04:24:00,
2013-11-14 23:53:00,38.0,15.0,30.18,SSW,209,2.0,8.0,38,0.00,,,0.00,,2013-11-15 04:53:00,